createdAt,value
2019-04-25T00:02:13.671Z,99.50
2019-04-25T00:04:43.404Z,99.50
2019-04-25T00:07:11.982Z,99.60
2019-04-25T00:09:43.074Z,99.90
2019-04-25T00:12:14.361Z,99.90
2019-04-25T00:14:43.721Z,99.90
2019-04-25T00:17:13.931Z,99.90
2019-04-25T00:19:43.257Z,99.90
2019-04-25T00:22:19.567Z,99.90
2019-04-25T00:24:58.691Z,99.90
2019-04-25T00:27:27.435Z,99.90
2019-04-25T00:29:56.495Z,99.90
2019-04-25T00:32:24.959Z,99.90
2019-04-25T00:34:53.665Z,99.90
2019-04-25T00:37:22.571Z,99.90
2019-04-25T00:39:51.731Z,99.90
2019-04-25T00:42:20.629Z,99.90
2019-04-25T00:44:49.582Z,99.90
2019-04-25T00:47:18.411Z,99.90
2019-04-25T00:49:46.878Z,99.90
2019-04-25T00:52:15.594Z,99.90
2019-04-25T00:54:44.204Z,99.90
2019-04-25T00:57:14.000Z,99.90
2019-04-25T00:59:54.133Z,99.90
2019-04-25T01:02:44.074Z,99.90
2019-04-25T01:05:12.803Z,99.90
2019-04-25T01:07:42.239Z,99.90
2019-04-25T01:10:11.909Z,99.90
2019-04-25T01:12:41.711Z,99.90
2019-04-25T01:15:11.642Z,99.90
2019-04-25T01:17:41.321Z,99.90
2019-04-25T01:20:10.762Z,99.90
2019-04-25T01:22:39.212Z,99.90
2019-04-25T01:25:09.510Z,99.90
2019-04-25T01:27:37.959Z,99.90
2019-04-25T01:30:08.362Z,99.90
2019-04-25T01:32:38.954Z,99.90
2019-04-25T01:35:10.300Z,99.90
2019-04-25T01:37:57.305Z,99.90
2019-04-25T01:40:36.852Z,99.90
2019-04-25T01:43:23.656Z,99.90
2019-04-25T01:45:54.050Z,99.90
2019-04-25T01:48:23.477Z,99.90
2019-04-25T01:50:53.914Z,99.90
2019-04-25T01:53:24.094Z,99.90
2019-04-25T01:56:00.594Z,99.90
2019-04-25T01:58:23.633Z,99.90
2019-04-25T02:00:54.730Z,99.90
2019-04-25T02:03:27.088Z,99.90
2019-04-25T02:05:55.227Z,99.90
2019-04-25T02:08:24.663Z,99.90
2019-04-25T02:10:56.989Z,99.90
2019-04-25T02:13:26.395Z,99.90
2019-04-25T02:15:55.942Z,99.90
2019-04-25T02:18:24.863Z,99.90
2019-04-25T02:20:56.576Z,99.90
2019-04-25T02:23:44.192Z,99.90
2019-04-25T02:26:16.776Z,99.90
2019-04-25T02:28:43.738Z,99.90
2019-04-25T02:31:17.570Z,99.90
2019-04-25T02:33:44.373Z,99.90
2019-04-25T02:36:15.071Z,99.90
2019-04-25T02:38:44.311Z,99.90
2019-04-25T02:41:14.792Z,99.90
2019-04-25T02:43:45.355Z,99.90
2019-04-25T02:46:32.019Z,99.90
2019-04-25T02:49:08.831Z,99.90
2019-04-25T02:51:56.218Z,99.90
2019-04-25T02:54:24.562Z,99.90
2019-04-25T02:56:54.742Z,99.90
2019-04-25T02:59:25.339Z,99.90
2019-04-25T03:01:54.471Z,99.90
2019-04-25T03:04:24.095Z,99.90
2019-04-25T03:06:55.156Z,99.90
2019-04-25T03:09:24.803Z,99.90
2019-04-25T03:11:54.769Z,99.90
2019-04-25T03:14:26.400Z,99.90
2019-04-25T03:16:54.467Z,99.90
2019-04-25T03:19:26.352Z,99.90
2019-04-25T03:21:59.501Z,99.90
2019-04-25T03:24:28.229Z,99.90
2019-04-25T03:26:57.036Z,99.90
2019-04-25T03:29:25.485Z,99.90
2019-04-25T03:31:56.010Z,99.90
2019-04-25T03:34:25.397Z,99.90
2019-04-25T03:36:54.395Z,99.90
2019-04-25T03:39:24.167Z,99.90
2019-04-25T03:41:53.957Z,99.90
2019-04-25T03:44:23.678Z,99.90
2019-04-25T03:46:53.474Z,99.90
2019-04-25T03:49:23.760Z,99.90
2019-04-25T03:51:53.841Z,99.90
2019-04-25T03:54:23.531Z,99.90
2019-04-25T03:56:55.527Z,99.90
2019-04-25T03:59:23.654Z,99.90
2019-04-25T04:01:53.745Z,99.90
2019-04-25T04:04:23.744Z,99.90
2019-04-25T04:06:53.798Z,99.90
2019-04-25T04:09:24.050Z,99.90
2019-04-25T04:11:53.791Z,99.90
2019-04-25T04:14:23.800Z,99.90
2019-04-25T04:17:10.882Z,99.90
2019-04-25T04:19:58.179Z,99.90
2019-04-25T04:22:29.830Z,99.90
2019-04-25T04:24:59.930Z,99.90
2019-04-25T04:27:28.759Z,99.90
2019-04-25T04:29:57.205Z,99.90
2019-04-25T04:32:26.035Z,99.90
2019-04-25T04:34:54.483Z,99.90
2019-04-25T04:37:23.722Z,99.90
2019-04-25T04:39:53.596Z,99.90
2019-04-25T04:42:23.675Z,99.90
2019-04-25T04:44:53.474Z,99.90
2019-04-25T04:47:23.508Z,99.90
2019-04-25T04:49:54.013Z,99.90
2019-04-25T04:52:25.771Z,99.90
2019-04-25T04:55:05.196Z,99.90
2019-04-25T04:57:32.557Z,99.90
2019-04-25T04:59:55.751Z,99.90
2019-04-25T05:02:33.412Z,99.90
2019-04-25T05:05:04.082Z,99.90
2019-04-25T05:07:40.451Z,99.90
2019-04-25T05:10:09.145Z,99.90
2019-04-25T05:12:39.114Z,99.90
2019-04-25T05:15:08.466Z,99.90
2019-04-25T05:17:36.983Z,99.90
2019-04-25T05:20:07.284Z,99.90
2019-04-25T05:22:36.072Z,99.90
2019-04-25T05:25:07.219Z,99.90
2019-04-25T05:27:50.720Z,99.90
2019-04-25T05:30:11.561Z,99.90
2019-04-25T05:32:41.311Z,99.90
2019-04-25T05:35:09.903Z,99.90
2019-04-25T05:37:38.351Z,99.90
2019-04-25T05:40:07.447Z,99.90
2019-04-25T05:42:54.284Z,99.90
2019-04-25T05:45:27.230Z,99.90
2019-04-25T05:47:56.031Z,99.90
2019-04-25T05:50:25.159Z,99.90
2019-04-25T05:52:55.496Z,99.90
2019-04-25T05:55:25.150Z,99.90
2019-04-25T05:57:54.067Z,99.90
2019-04-25T06:00:24.723Z,99.90
2019-04-25T06:02:53.373Z,99.90
2019-04-25T06:05:23.375Z,99.80
2019-04-25T06:07:54.176Z,99.30
2019-04-25T06:10:27.831Z,98.10
2019-04-25T06:13:15.991Z,99.60
2019-04-25T06:15:46.423Z,90.10
2019-04-25T06:18:19.896Z,77.70
2019-04-25T06:20:48.435Z,70.30
2019-04-25T06:23:20.564Z,82.30
2019-04-25T06:25:49.116Z,83.10
2019-04-25T06:28:19.419Z,86.90
2019-04-25T06:30:49.107Z,92.70
2019-04-25T06:33:18.903Z,92.40
2019-04-25T06:35:47.407Z,85.50
2019-04-25T06:38:16.199Z,79.60
2019-04-25T06:40:45.199Z,69.80
2019-04-25T06:43:13.659Z,57.70
2019-04-25T06:46:00.596Z,53.60
2019-04-25T06:48:35.047Z,52.70
2019-04-25T06:51:03.736Z,54.60
2019-04-25T06:53:34.657Z,55.10
2019-04-25T06:56:03.743Z,55.30
2019-04-25T06:58:34.123Z,59.10
2019-04-25T07:01:03.373Z,54.10
2019-04-25T07:03:31.950Z,50.90
2019-04-25T07:06:00.863Z,53.70
2019-04-25T07:08:29.311Z,46.80
2019-04-25T07:10:58.141Z,47.10
2019-04-25T07:13:27.008Z,44.20
2019-04-25T07:15:55.527Z,40.20
2019-04-25T07:18:29.204Z,40.50
2019-04-25T07:20:54.848Z,40.90
2019-04-25T07:23:24.493Z,41.00
2019-04-25T07:25:55.341Z,46.30
2019-04-25T07:28:31.057Z,38.60
2019-04-25T07:31:04.034Z,42.10
2019-04-25T07:33:35.911Z,44.10
2019-04-25T07:36:04.468Z,45.10
2019-04-25T07:38:34.067Z,39.00
2019-04-25T07:41:03.730Z,40.40
2019-04-25T07:43:34.113Z,42.60
2019-04-25T07:46:03.459Z,40.60
2019-04-25T07:48:33.723Z,38.70
2019-04-25T07:51:03.684Z,38.10
2019-04-25T07:53:34.610Z,40.50
2019-04-25T07:56:04.675Z,38.50
2019-04-25T07:58:50.501Z,37.90
2019-04-25T08:01:13.978Z,37.80
2019-04-25T08:03:43.871Z,36.70
2019-04-25T08:06:14.049Z,34.90
2019-04-25T08:08:43.627Z,37.60
2019-04-25T08:11:13.858Z,32.80
2019-04-25T08:13:44.626Z,36.40
2019-04-25T08:16:28.867Z,33.40
2019-04-25T08:18:57.791Z,29.90
2019-04-25T08:21:26.556Z,31.40
2019-04-25T08:23:55.764Z,27.20
2019-04-25T08:26:25.889Z,27.30
2019-04-25T08:28:57.492Z,28.10
2019-04-25T08:31:24.908Z,28.70
2019-04-25T08:33:53.801Z,28.20
2019-04-25T08:36:23.367Z,29.80
2019-04-25T08:38:53.463Z,31.40
2019-04-25T08:41:23.925Z,30.30
2019-04-25T08:43:54.315Z,30.30
2019-04-25T08:46:25.320Z,31.30
2019-04-25T08:49:13.982Z,31.70
2019-04-25T08:51:44.550Z,33.30
2019-04-25T08:54:31.042Z,34.50
2019-04-25T08:57:02.164Z,32.40
2019-04-25T08:59:47.170Z,31.70
2019-04-25T09:02:13.691Z,36.80
2019-04-25T09:05:01.568Z,33.80
2019-04-25T09:07:30.099Z,32.70
2019-04-25T09:09:58.631Z,30.80
2019-04-25T09:12:27.085Z,29.50
2019-04-25T09:14:56.963Z,28.80
2019-04-25T09:17:25.755Z,29.70
2019-04-25T09:19:54.343Z,30.30
2019-04-25T09:22:24.225Z,28.20
2019-04-25T09:24:54.004Z,28.50
2019-04-25T09:27:23.498Z,27.10
2019-04-25T09:29:54.085Z,31.50
2019-04-25T09:32:23.826Z,29.20
2019-04-25T09:34:54.422Z,27.50
2019-04-25T09:37:24.521Z,28.80
2019-04-25T09:39:55.832Z,27.50
2019-04-25T09:42:24.437Z,29.10
2019-04-25T09:45:15.253Z,28.10
2019-04-25T09:47:45.751Z,27.70
2019-04-25T09:50:21.907Z,27.70
2019-04-25T09:52:50.711Z,27.10
2019-04-25T09:55:24.185Z,29.40
2019-04-25T09:57:54.643Z,27.00
2019-04-25T10:00:33.273Z,28.50
2019-04-25T10:03:04.520Z,27.80
2019-04-25T10:05:33.905Z,27.90
2019-04-25T10:08:03.394Z,27.00
2019-04-25T10:10:32.432Z,26.50
2019-04-25T10:13:00.951Z,28.70
2019-04-25T10:15:50.485Z,25.90
2019-04-25T10:18:18.943Z,27.20
2019-04-25T10:20:47.958Z,27.30
2019-04-25T10:23:17.958Z,27.30
2019-04-25T10:25:46.771Z,26.30
2019-04-25T10:28:15.226Z,26.30
2019-04-25T10:30:43.764Z,26.90
2019-04-25T10:33:15.092Z,25.60
2019-04-25T10:35:52.010Z,26.50
2019-04-25T10:38:14.676Z,26.50
2019-04-25T10:40:46.149Z,25.00
2019-04-25T10:43:16.573Z,25.20
2019-04-25T10:45:46.359Z,25.40
2019-04-25T10:48:15.803Z,25.90
2019-04-25T10:50:45.948Z,26.10
2019-04-25T10:53:15.167Z,25.00
2019-04-25T10:55:44.367Z,24.80
2019-04-25T10:58:14.202Z,24.60
2019-04-25T11:00:47.306Z,24.80
2019-04-25T11:03:21.704Z,24.70
2019-04-25T11:05:50.587Z,24.80
2019-04-25T11:08:19.130Z,23.40
2019-04-25T11:10:49.944Z,24.30
2019-04-25T11:13:19.211Z,24.40
2019-04-25T11:15:48.003Z,23.50
2019-04-25T11:18:16.539Z,23.80
2019-04-25T11:20:45.067Z,22.70
2019-04-25T11:23:14.049Z,23.50
2019-04-25T11:25:43.546Z,24.10
2019-04-25T11:28:14.419Z,22.90
2019-04-25T11:30:45.758Z,23.90
2019-04-25T11:33:17.639Z,23.40
2019-04-25T11:35:47.758Z,23.00
2019-04-25T11:38:24.251Z,23.40
2019-04-25T11:40:55.119Z,23.70
2019-04-25T11:43:25.054Z,25.30
2019-04-25T11:45:54.072Z,23.40
2019-04-25T11:48:23.995Z,22.20
2019-04-25T11:50:54.618Z,22.30
2019-04-25T11:53:24.753Z,24.30
2019-04-25T11:55:53.781Z,21.30
2019-04-25T11:58:23.793Z,24.00
2019-04-25T12:00:54.147Z,22.70
2019-04-25T12:03:22.980Z,21.30
2019-04-25T12:05:53.343Z,23.80
2019-04-25T12:08:22.243Z,21.20
2019-04-25T12:10:51.540Z,20.80
2019-04-25T12:13:20.215Z,22.30
2019-04-25T12:15:49.773Z,19.50
2019-04-25T12:18:18.748Z,21.30
2019-04-25T12:20:47.493Z,21.10
2019-04-25T12:23:16.043Z,21.90
2019-04-25T12:25:46.240Z,20.40
2019-04-25T12:28:14.859Z,20.80
2019-04-25T12:30:44.883Z,22.30
2019-04-25T12:33:20.933Z,22.70
2019-04-25T12:35:44.291Z,22.30
2019-04-25T12:38:14.144Z,22.30
2019-04-25T12:40:43.412Z,20.60
2019-04-25T12:43:13.748Z,22.60
2019-04-25T12:45:45.709Z,21.30
2019-04-25T12:48:15.828Z,24.10
2019-04-25T12:50:44.303Z,23.40
2019-04-25T12:53:14.115Z,21.80
2019-04-25T12:55:44.174Z,21.80
2019-04-25T12:58:13.532Z,21.90
2019-04-25T13:00:51.200Z,21.80
2019-04-25T13:03:14.319Z,21.40
2019-04-25T13:05:44.258Z,22.30
2019-04-25T13:08:14.345Z,22.60
2019-04-25T13:10:44.449Z,23.80
2019-04-25T13:13:15.409Z,22.10
2019-04-25T13:15:46.073Z,22.00
2019-04-25T13:18:15.052Z,21.70
2019-04-25T13:20:43.523Z,22.50
2019-04-25T13:23:11.971Z,20.50
2019-04-25T13:25:40.446Z,21.60
2019-04-25T13:28:14.437Z,24.20
2019-04-25T13:31:06.643Z,21.10
2019-04-25T13:33:33.462Z,21.40
2019-04-25T13:36:09.867Z,23.00
2019-04-25T13:38:38.655Z,23.30
2019-04-25T13:41:07.123Z,21.50
2019-04-25T13:43:35.577Z,21.10
2019-04-25T13:46:04.419Z,20.70
2019-04-25T13:48:34.695Z,20.50
2019-04-25T13:51:04.102Z,24.40
2019-04-25T13:53:33.547Z,22.00
2019-04-25T13:56:03.300Z,19.90
2019-04-25T13:58:34.326Z,19.60
2019-04-25T14:01:12.802Z,21.30
2019-04-25T14:03:34.040Z,20.40
2019-04-25T14:06:03.854Z,21.10
2019-04-25T14:08:33.526Z,20.90
2019-04-25T14:11:05.006Z,20.50
2019-04-25T14:13:32.651Z,21.30
2019-04-25T14:16:18.735Z,20.80
2019-04-25T14:18:58.028Z,22.80
2019-04-25T14:21:27.313Z,23.20
2019-04-25T14:23:55.823Z,21.90
2019-04-25T14:26:25.043Z,21.50
2019-04-25T14:28:54.165Z,22.80
2019-04-25T14:31:33.780Z,21.10
2019-04-25T14:33:54.045Z,20.80
2019-04-25T14:36:25.798Z,21.60
2019-04-25T14:38:52.975Z,20.50
2019-04-25T14:41:22.379Z,20.80
2019-04-25T14:43:51.459Z,21.90
2019-04-25T14:46:20.275Z,24.30
2019-04-25T14:48:50.222Z,24.60
2019-04-25T14:51:18.875Z,24.00
2019-04-25T14:53:47.323Z,24.30
2019-04-25T14:56:19.904Z,24.40
2019-04-25T14:58:48.357Z,26.00
2019-04-25T15:01:18.719Z,25.40
2019-04-25T15:03:47.455Z,25.90
2019-04-25T15:06:15.904Z,25.50
2019-04-25T15:08:44.375Z,25.10
2019-04-25T15:11:12.823Z,26.00
2019-04-25T15:13:41.291Z,26.00
2019-04-25T15:16:10.085Z,24.70
2019-04-25T15:18:46.419Z,25.30
2019-04-25T15:21:09.058Z,24.90
2019-04-25T15:23:37.535Z,25.00
2019-04-25T15:26:05.987Z,24.20
2019-04-25T15:28:34.771Z,24.60
2019-04-25T15:31:03.289Z,24.10
2019-04-25T15:33:31.759Z,25.30
2019-04-25T15:36:02.167Z,24.00
2019-04-25T15:38:33.466Z,24.70
2019-04-25T15:41:06.467Z,27.10
2019-04-25T15:43:39.222Z,26.90
2019-04-25T15:46:21.490Z,26.10
2019-04-25T15:48:51.276Z,26.30
2019-04-25T15:51:20.106Z,26.70
2019-04-25T15:53:48.579Z,27.40
2019-04-25T15:56:17.029Z,28.00
2019-04-25T15:58:45.871Z,27.90
2019-04-25T16:01:14.391Z,27.80
2019-04-25T16:03:42.859Z,27.20
2019-04-25T16:06:11.383Z,27.40
2019-04-25T16:08:39.851Z,27.80
2019-04-25T16:11:08.607Z,29.00
2019-04-25T16:13:37.529Z,28.20
2019-04-25T16:16:06.809Z,28.10
2019-04-25T16:18:35.595Z,29.00
2019-04-25T16:21:04.292Z,29.30
2019-04-25T16:23:34.244Z,29.70
2019-04-25T16:26:03.923Z,29.80
2019-04-25T16:28:32.715Z,30.10
2019-04-25T16:31:01.232Z,29.50
2019-04-25T16:33:30.478Z,31.80
2019-04-25T16:35:59.403Z,32.10
2019-04-25T16:38:29.660Z,31.40
2019-04-25T16:40:58.630Z,30.70
2019-04-25T16:43:29.629Z,30.40
2019-04-25T16:45:58.663Z,30.40
2019-04-25T16:48:27.131Z,28.50
2019-04-25T16:50:55.945Z,28.40
2019-04-25T16:53:24.735Z,29.00
2019-04-25T16:55:53.530Z,30.60
2019-04-25T16:58:23.410Z,27.70
2019-04-25T17:00:56.748Z,27.20
2019-04-25T17:03:25.668Z,26.70
2019-04-25T17:05:54.139Z,27.30
2019-04-25T17:08:24.163Z,28.00
2019-04-25T17:10:52.639Z,29.40
2019-04-25T17:13:21.091Z,31.40
2019-04-25T17:16:09.626Z,28.50
2019-04-25T17:18:39.807Z,27.30
2019-04-25T17:21:11.750Z,29.60
2019-04-25T17:23:40.440Z,30.00
2019-04-25T17:26:09.109Z,29.40
2019-04-25T17:28:41.427Z,30.10
2019-04-25T17:31:11.530Z,28.70
2019-04-25T17:33:42.513Z,28.30
2019-04-25T17:36:15.647Z,34.00
2019-04-25T17:38:48.451Z,37.60
2019-04-25T17:41:17.239Z,36.30
2019-04-25T17:43:46.039Z,38.40
2019-04-25T17:46:16.216Z,38.90
2019-04-25T17:48:44.947Z,41.90
2019-04-25T17:51:13.679Z,43.40
2019-04-25T17:53:42.131Z,42.90
2019-04-25T17:56:10.594Z,45.20
2019-04-25T17:58:39.175Z,48.50
2019-04-25T18:01:09.226Z,47.10
2019-04-25T18:03:37.746Z,49.20
2019-04-25T18:06:06.217Z,50.90
2019-04-25T18:08:35.560Z,52.10
2019-04-25T18:11:04.659Z,53.30
2019-04-25T18:13:34.337Z,51.40
2019-04-25T18:16:13.730Z,53.50
2019-04-25T18:18:55.931Z,55.40
2019-04-25T18:21:24.743Z,57.90
2019-04-25T18:23:58.824Z,58.80
2019-04-25T18:26:31.860Z,59.20
2019-04-25T18:29:04.636Z,60.20
2019-04-25T18:31:33.364Z,61.50
2019-04-25T18:34:04.512Z,62.60
2019-04-25T18:36:43.648Z,64.10
2019-04-25T18:39:13.811Z,66.90
2019-04-25T18:41:46.879Z,67.10
2019-04-25T18:44:16.831Z,68.80
2019-04-25T18:46:47.319Z,69.70
2019-04-25T18:49:15.786Z,72.50
2019-04-25T18:51:55.198Z,73.90
2019-04-25T18:54:22.167Z,75.30
2019-04-25T18:56:54.987Z,77.90
2019-04-25T18:59:37.201Z,78.00
2019-04-25T19:02:25.576Z,79.20
2019-04-25T19:05:10.796Z,78.80
2019-04-25T19:07:39.568Z,79.60
2019-04-25T19:10:10.062Z,79.80
2019-04-25T19:12:41.134Z,83.50
2019-04-25T19:15:10.087Z,83.60
2019-04-25T19:17:39.910Z,87.00
2019-04-25T19:20:08.991Z,84.40
2019-04-25T19:22:37.464Z,85.50
2019-04-25T19:25:06.915Z,85.60
2019-04-25T19:27:35.395Z,88.60
2019-04-25T19:30:05.651Z,88.30
2019-04-25T19:32:34.413Z,86.20
2019-04-25T19:35:02.931Z,87.80
2019-04-25T19:37:31.410Z,86.20
2019-04-25T19:40:17.618Z,88.90
2019-04-25T19:43:01.092Z,86.90
2019-04-25T19:45:29.540Z,82.80
2019-04-25T19:47:58.145Z,89.00
2019-04-25T19:50:26.658Z,86.70
2019-04-25T19:52:56.426Z,86.50
2019-04-25T19:55:25.158Z,88.20
2019-04-25T19:57:53.679Z,90.80
2019-04-25T20:00:22.291Z,90.10
2019-04-25T20:02:53.000Z,90.90
2019-04-25T20:05:23.617Z,90.10
2019-04-25T20:07:56.791Z,91.60
2019-04-25T20:10:27.245Z,91.40
2019-04-25T20:12:55.763Z,90.90
2019-04-25T20:15:24.508Z,91.50
2019-04-25T20:17:54.228Z,92.50
2019-04-25T20:20:23.223Z,92.20
2019-04-25T20:22:52.389Z,91.90
2019-04-25T20:25:21.056Z,91.80
2019-04-25T20:27:50.576Z,92.70
2019-04-25T20:30:19.835Z,92.60
2019-04-25T20:32:49.231Z,93.10
2019-04-25T20:35:17.891Z,92.50
2019-04-25T20:37:47.472Z,92.10
2019-04-25T20:40:16.843Z,92.90
2019-04-25T20:42:45.550Z,92.60
2019-04-25T20:45:16.178Z,93.00
2019-04-25T20:47:44.627Z,92.90
2019-04-25T20:50:13.655Z,93.40
2019-04-25T20:52:42.118Z,93.30
2019-04-25T20:55:10.654Z,94.60
2019-04-25T20:57:39.419Z,95.30
2019-04-25T21:00:09.036Z,94.20
2019-04-25T21:02:37.559Z,94.70
2019-04-25T21:05:06.175Z,94.70
2019-04-25T21:07:35.000Z,94.50
2019-04-25T21:10:04.035Z,94.50
2019-04-25T21:12:32.791Z,94.10
2019-04-25T21:15:03.740Z,94.90
2019-04-25T21:17:39.851Z,95.10
2019-04-25T21:20:11.375Z,95.00
2019-04-25T21:22:39.827Z,94.50
2019-04-25T21:25:08.724Z,95.60
2019-04-25T21:27:37.252Z,96.70
2019-04-25T21:30:07.638Z,97.70
2019-04-25T21:32:53.397Z,97.70
2019-04-25T21:35:22.619Z,98.60
2019-04-25T21:37:52.130Z,98.90
2019-04-25T21:40:39.086Z,97.50
2019-04-25T21:43:12.547Z,96.80
2019-04-25T21:45:41.747Z,97.30
2019-04-25T21:48:10.570Z,97.20
2019-04-25T21:50:40.728Z,96.30
2019-04-25T21:53:09.863Z,98.10
2019-04-25T21:55:38.607Z,97.40
2019-04-25T21:58:07.656Z,98.50
2019-04-25T22:00:41.031Z,98.10
2019-04-25T22:03:10.422Z,98.40
2019-04-25T22:05:39.167Z,98.40
2019-04-25T22:08:07.771Z,99.20
2019-04-25T22:10:36.635Z,98.50
2019-04-25T22:13:11.975Z,99.80
2019-04-25T22:15:35.756Z,99.30
2019-04-25T22:18:04.960Z,99.00
2019-04-25T22:20:33.485Z,99.30
2019-04-25T22:23:02.185Z,99.90
2019-04-25T22:25:31.067Z,99.90
2019-04-25T22:28:01.070Z,99.70
2019-04-25T22:30:30.143Z,99.90
2019-04-25T22:33:06.547Z,99.70
2019-04-25T22:35:50.044Z,99.90
2019-04-25T22:38:18.887Z,99.90
2019-04-25T22:40:47.424Z,99.90
2019-04-25T22:43:17.138Z,99.90
2019-04-25T22:45:45.963Z,99.90
2019-04-25T22:48:16.467Z,99.90
2019-04-25T22:50:45.295Z,99.90
2019-04-25T22:53:21.777Z,99.90
2019-04-25T22:55:44.319Z,99.90
2019-04-25T22:58:12.871Z,99.90
2019-04-25T23:00:41.403Z,99.90
2019-04-25T23:03:12.192Z,99.90
2019-04-25T23:05:42.363Z,99.90
2019-04-25T23:08:11.106Z,99.90
2019-04-25T23:10:39.634Z,99.90
2019-04-25T23:13:08.797Z,99.90
2019-04-25T23:15:37.691Z,99.90
2019-04-25T23:18:07.211Z,99.90
2019-04-25T23:20:36.094Z,99.90
2019-04-25T23:23:05.771Z,99.90
2019-04-25T23:25:36.036Z,99.90
2019-04-25T23:28:06.406Z,99.90
2019-04-25T23:30:40.312Z,99.90
2019-04-25T23:33:08.859Z,99.90
2019-04-25T23:35:39.288Z,99.90
2019-04-25T23:38:12.166Z,99.90
2019-04-25T23:40:39.791Z,99.90
2019-04-25T23:43:09.577Z,99.90
2019-04-25T23:45:38.160Z,99.90
2019-04-25T23:48:07.406Z,99.90
2019-04-25T23:50:37.064Z,99.90
2019-04-25T23:53:06.502Z,99.90
2019-04-25T23:55:35.783Z,99.90
2019-04-25T23:58:04.306Z,99.90
